Time;durP1;ratioP1;P1;durP2;ratioP2;P2;SDS_P1;SDS_P2;PMS_P1;PMS_P2;Temp;Humidity;BMP_temperature;BMP_pressure;BME280_temperature;BME280_humidity;BME280_pressure;Samples;Min_cycle;Max_cycle;Signal;HPM_P1;HPM_P2
2022/03/22 00:01:47;;;;;;;45.25;36.83;;;;;;;-148.33;100.00;56587.81;5073441;28;20025;-60
2022/03/22 00:04:12;;;;;;;40.55;33.45;;;;;;;-148.33;100.00;56587.81;5073555;28;20047;-60
2022/03/22 00:06:38;;;;;;;42.30;34.22;;;;;;;-148.33;100.00;56587.81;5073498;28;20032;-58
2022/03/22 00:09:03;;;;;;;45.58;35.25;;;;;;;-148.33;100.00;56587.81;5072766;28;20177;-58
2022/03/22 00:11:28;;;;;;;39.55;35.25;;;;;;;-148.33;100.00;56587.81;5072991;28;20025;-59
2022/03/22 00:13:54;;;;;;;45.05;36.17;;;;;;;-148.33;100.00;56587.81;5073041;28;20461;-60
2022/03/22 00:16:19;;;;;;;43.33;36.90;;;;;;;-148.33;100.00;56587.81;5073115;28;20153;-59
2022/03/22 00:18:46;;;;;;;40.80;35.42;;;;;;;-148.33;100.00;56587.81;5073019;28;20284;-60
2022/03/22 00:21:11;;;;;;;42.38;35.20;;;;;;;-148.33;100.00;56587.81;5072374;28;20407;-58
2022/03/22 00:23:37;;;;;;;43.65;33.80;;;;;;;-148.33;100.00;56587.81;5072903;28;20028;-60
2022/03/22 00:26:03;;;;;;;39.88;34.05;;;;;;;-148.33;100.00;56587.81;5070876;28;20028;-59
2022/03/22 00:28:28;;;;;;;41.63;35.50;;;;;;;-148.33;100.00;56587.81;5051949;28;20020;-59
2022/03/22 00:30:54;;;;;;;41.25;34.38;;;;;;;-148.33;100.00;56587.81;5069600;28;20418;-59
2022/03/22 00:33:19;;;;;;;38.83;33.90;;;;;;;-148.33;100.00;56587.81;5050894;28;20021;-60
2022/03/22 00:35:45;;;;;;;38.65;33.83;;;;;;;-148.33;100.00;56587.81;5050684;28;20048;-60
2022/03/22 00:38:13;;;;;;;41.75;33.67;;;;;;;-148.33;100.00;56587.81;5050282;28;20036;-59
2022/03/22 00:40:40;;;;;;;40.05;31.98;;;;;;;-148.33;100.00;56587.81;5050509;28;20388;-59
2022/03/22 00:43:06;;;;;;;36.42;31.95;;;;;;;-148.33;100.00;56587.81;5050348;28;20469;-58
2022/03/22 00:45:33;;;;;;;39.90;32.92;;;;;;;-148.33;100.00;56587.81;5050980;28;20032;-59
2022/03/22 00:47:59;;;;;;;40.03;32.67;;;;;;;-148.33;100.00;56587.81;5050606;28;20020;-59
2022/03/22 00:50:28;;;;;;;44.30;33.22;;;;;;;-148.33;100.00;56587.81;5050068;28;20488;-59
2022/03/22 00:52:55;;;;;;;41.78;34.78;;;;;;;-148.33;100.00;56587.81;5050189;28;20025;-59
2022/03/22 00:55:23;;;;;;;44.22;34.40;;;;;;;-148.33;100.00;56587.81;5049972;28;20025;-59
2022/03/22 00:57:48;;;;;;;41.50;34.65;;;;;;;-148.33;100.00;56587.81;5050242;28;20029;-59
2022/03/22 01:00:14;;;;;;;44.08;33.50;;;;;;;-148.33;100.00;56587.81;5049788;28;20045;-59
2022/03/22 01:02:42;;;;;;;42.00;33.40;;;;;;;-148.33;100.00;56587.81;5049926;28;20074;-59
2022/03/22 01:05:17;;;;;;;38.97;33.22;;;;;;;-148.33;100.00;56587.81;5049745;28;20032;-58
2022/03/22 01:07:45;;;;;;;40.90;33.08;;;;;;;-148.33;100.00;56587.81;5049653;28;20385;-59
2022/03/22 01:10:11;;;;;;;40.90;32.72;;;;;;;-148.33;100.00;56587.81;5049945;28;20029;-59
2022/03/22 01:12:39;;;;;;;39.53;32.45;;;;;;;-148.33;100.00;56587.81;5068893;28;20040;-57
2022/03/22 01:15:10;;;;;;;42.47;33.47;;;;;;;-148.33;100.00;56587.81;5068781;28;20037;-59
2022/03/22 01:17:38;;;;;;;37.22;30.30;;;;;;;-148.33;100.00;56587.81;5068860;28;20055;-58
2022/03/22 01:20:10;;;;;;;39.50;32.20;;;;;;;-148.33;100.00;56587.81;5049080;28;20033;-57
2022/03/22 01:22:40;;;;;;;38.92;32.45;;;;;;;-148.33;100.00;56587.81;5049837;28;20028;-59
2022/03/22 01:25:10;;;;;;;39.35;32.83;;;;;;;-148.33;100.00;56587.81;5049364;28;20060;-59
2022/03/22 01:27:36;;;;;;;40.50;32.67;;;;;;;-148.33;100.00;56587.81;5049141;28;20028;-59
2022/03/22 01:30:05;;;;;;;37.50;31.52;;;;;;;-148.33;100.00;56587.81;5049369;28;20033;-59
2022/03/22 01:32:30;;;;;;;37.08;31.05;;;;;;;-148.33;100.00;56587.81;5049002;28;20028;-59
2022/03/22 01:34:56;;;;;;;35.80;30.60;;;;;;;-148.33;100.00;56587.81;5049679;28;20424;-58
2022/03/22 01:37:21;;;;;;;37.25;30.27;;;;;;;-148.33;100.00;56587.81;5049110;28;20025;-58
2022/03/22 01:39:47;;;;;;;37.13;29.67;;;;;;;-148.33;100.00;56587.81;5049154;28;20036;-58
2022/03/22 01:42:12;;;;;;;37.58;30.40;;;;;;;-148.33;100.00;56587.81;5048656;28;20032;-58
2022/03/22 01:44:37;;;;;;;34.95;28.27;;;;;;;-148.33;100.00;56587.81;5049178;28;20473;-58
2022/03/22 01:47:03;;;;;;;35.33;29.60;;;;;;;-148.33;100.00;56587.81;5049512;28;20025;-59
2022/03/22 01:49:29;;;;;;;40.17;30.38;;;;;;;-148.33;100.00;56587.81;5067751;28;20043;-59
2022/03/22 01:51:55;;;;;;;33.55;28.05;;;;;;;-148.33;100.00;56587.81;5067819;28;20025;-57
2022/03/22 01:54:20;;;;;;;35.00;29.17;;;;;;;-148.33;100.00;56587.81;5068082;28;20495;-59
2022/03/22 01:56:46;;;;;;;32.47;28.13;;;;;;;-148.33;100.00;56587.81;5067713;28;20021;-59
2022/03/22 01:59:11;;;;;;;36.67;29.38;;;;;;;-148.33;100.00;56587.81;5068012;28;20048;-58
2022/03/22 02:07:06;;;;;;;32.25;27.33;;;;;;;-148.33;100.00;56587.81;5067992;28;20143;-59
2022/03/22 02:09:32;;;;;;;30.75;26.45;;;;;;;-148.33;100.00;56587.81;5067576;28;20024;-58
2022/03/22 02:11:58;;;;;;;32.97;27.13;;;;;;;-148.33;100.00;56587.81;5053249;28;20032;-59
2022/03/22 02:14:23;;;;;;;32.83;26.73;;;;;;;-148.33;100.00;56587.81;5048823;28;20439;-57
2022/03/22 02:16:49;;;;;;;29.73;25.73;;;;;;;-148.33;100.00;56587.81;5048390;28;20024;-58
2022/03/22 02:19:15;;;;;;;31.15;26.40;;;;;;;-148.33;100.00;56587.81;5048622;28;20036;-58
2022/03/22 02:21:41;;;;;;;27.75;24.75;;;;;;;-148.33;100.00;56587.81;5048730;28;20032;-59
2022/03/22 02:24:07;;;;;;;33.13;25.60;;;;;;;-148.33;100.00;56587.81;5047989;28;20374;-57
2022/03/22 02:26:32;;;;;;;31.13;26.20;;;;;;;-148.33;100.00;56587.81;5048176;28;20086;-58
2022/03/22 02:28:58;;;;;;;31.85;25.52;;;;;;;-148.33;100.00;56587.81;5049111;28;20036;-58
2022/03/22 02:31:28;;;;;;;28.80;24.10;;;;;;;-148.33;100.00;56587.81;5048493;28;20085;-58
2022/03/22 02:33:54;;;;;;;32.63;25.77;;;;;;;-148.33;100.00;56587.81;5048279;28;20137;-57
2022/03/22 02:36:20;;;;;;;27.83;24.15;;;;;;;-148.33;100.00;56587.81;5047618;28;20025;-58
2022/03/22 02:38:45;;;;;;;29.58;25.05;;;;;;;-148.33;100.00;56587.81;5048666;28;20029;-59
2022/03/22 02:41:27;;;;;;;31.63;24.63;;;;;;;-148.33;100.00;56587.81;5047995;28;20016;-59
2022/03/22 02:43:53;;;;;;;28.35;23.42;;;;;;;-148.33;100.00;56587.81;5061159;28;20421;-59
2022/03/22 02:46:19;;;;;;;27.58;23.48;;;;;;;-148.33;100.00;56587.81;5067224;28;20020;-59
2022/03/22 02:48:45;;;;;;;26.25;22.88;;;;;;;-148.33;100.00;56587.81;5067105;28;20024;-59
2022/03/22 02:51:11;;;;;;;27.92;23.95;;;;;;;-148.33;100.00;56587.81;5067529;28;20531;-58
2022/03/22 02:53:37;;;;;;;32.90;25.52;;;;;;;-148.33;100.00;56587.81;5067166;28;20122;-59
2022/03/22 02:56:03;;;;;;;26.10;23.17;;;;;;;-148.33;100.00;56587.81;5066886;28;20035;-58
2022/03/22 02:58:28;;;;;;;29.25;24.48;;;;;;;-148.33;100.00;56587.81;5066991;28;20025;-59
2022/03/22 03:00:54;;;;;;;26.63;22.42;;;;;;;-148.33;100.00;56587.81;5067101;28;20478;-58
2022/03/22 03:03:21;;;;;;;28.15;24.05;;;;;;;-148.33;100.00;56587.81;5067198;28;20055;-58
2022/03/22 03:05:47;;;;;;;28.92;23.33;;;;;;;-148.33;100.00;56587.81;5066506;28;20434;-58
2022/03/22 03:08:13;;;;;;;27.85;24.85;;;;;;;-148.33;100.00;56587.81;5066816;28;20025;-58
2022/03/22 03:10:38;;;;;;;31.67;25.58;;;;;;;-148.33;100.00;56587.81;5067197;28;20082;-58
2022/03/22 03:13:05;;;;;;;28.50;25.20;;;;;;;-148.33;100.00;56587.81;5066744;28;20069;-57
2022/03/22 03:15:31;;;;;;;26.38;23.60;;;;;;;-148.33;100.00;56587.81;5066464;28;20031;-58
2022/03/22 03:17:57;;;;;;;28.38;24.83;;;;;;;-148.33;100.00;56587.81;5066800;28;20025;-58
2022/03/22 03:20:23;;;;;;;29.00;25.27;;;;;;;-148.33;100.00;56587.81;5067241;28;20024;-57
2022/03/22 03:22:48;;;;;;;28.50;25.50;;;;;;;-148.33;100.00;56587.81;5066432;28;20361;-59
2022/03/22 03:25:14;;;;;;;30.95;25.88;;;;;;;-148.33;100.00;56587.81;5067090;28;20032;-58
2022/03/22 03:27:39;;;;;;;31.88;25.10;;;;;;;-148.33;100.00;56587.81;5066948;28;20028;-57
2022/03/22 03:30:06;;;;;;;30.33;25.35;;;;;;;-148.33;100.00;56587.81;5066558;28;20029;-58
2022/03/22 03:32:32;;;;;;;28.02;24.85;;;;;;;-148.33;100.00;56587.81;5066522;28;20451;-58
2022/03/22 03:34:58;;;;;;;29.95;25.65;;;;;;;-148.33;100.00;56587.81;5066506;28;20024;-57
2022/03/22 03:37:24;;;;;;;30.70;25.50;;;;;;;-148.33;100.00;56587.81;5066214;28;20393;-58
2022/03/22 03:39:52;;;;;;;28.38;25.15;;;;;;;-148.33;100.00;56587.81;5066456;28;20775;-57
2022/03/22 03:42:17;;;;;;;30.80;25.50;;;;;;;-148.33;100.00;56587.81;5066407;28;20107;-59
2022/03/22 03:47:28;;;;;;;31.00;26.95;;;;;;;-148.33;100.00;56587.81;5066584;28;20143;-58
2022/03/22 03:49:55;;;;;;;29.58;24.80;;;;;;;-148.33;100.00;56587.81;5066422;28;20074;-58
2022/03/22 03:52:26;;;;;;;29.13;24.08;;;;;;;-148.33;100.00;56587.81;5066281;28;20036;-58
2022/03/22 03:54:52;;;;;;;30.42;25.08;;;;;;;-148.33;100.00;56587.81;5050459;28;20049;-58
2022/03/22 03:57:19;;;;;;;31.40;25.90;;;;;;;-148.33;100.00;56587.81;5047256;28;20029;-58
2022/03/22 03:59:45;;;;;;;29.27;24.87;;;;;;;-148.33;100.00;56587.81;5046536;28;20409;-57
2022/03/22 04:02:10;;;;;;;28.67;24.93;;;;;;;-148.33;100.00;56587.81;5048727;28;20062;-58
2022/03/22 04:04:37;;;;;;;32.00;25.60;;;;;;;-148.33;100.00;56587.81;5051354;28;20024;-58
2022/03/22 04:07:06;;;;;;;31.20;26.85;;;;;;;-148.33;100.00;56587.81;5051539;28;20027;-58
2022/03/22 04:09:33;;;;;;;31.27;25.70;;;;;;;-148.33;100.00;56587.81;5051061;28;20033;-58
2022/03/22 04:11:58;;;;;;;28.67;24.77;;;;;;;-148.33;100.00;56587.81;5052675;28;20472;-58
2022/03/22 04:14:23;;;;;;;31.15;25.17;;;;;;;-148.33;100.00;56587.81;5069823;28;20021;-58
2022/03/22 04:16:52;;;;;;;30.00;25.33;;;;;;;-148.33;100.00;56587.81;5070310;28;20016;-58
2022/03/22 04:19:17;;;;;;;28.80;25.17;;;;;;;-148.33;100.00;56587.81;5070249;28;20028;-57
2022/03/22 04:21:43;;;;;;;26.77;23.87;;;;;;;-148.33;100.00;56587.81;5069749;28;20020;-58
2022/03/22 04:24:11;;;;;;;28.87;24.40;;;;;;;-148.33;100.00;56587.81;5069870;28;20082;-59
2022/03/22 04:26:39;;;;;;;30.53;24.13;;;;;;;-148.33;100.00;56587.81;5069272;28;20617;-58
2022/03/22 04:34:43;;;;;;;28.05;23.25;;;;;;;-148.33;100.00;56587.81;5033226;28;20504;-59
2022/03/22 04:37:12;;;;;;;27.60;22.85;;;;;;;-148.33;100.00;56587.81;5063180;28;20036;-58
2022/03/22 04:39:39;;;;;;;30.53;23.37;;;;;;;-148.33;100.00;56587.81;5069580;28;20016;-59
2022/03/22 04:42:05;;;;;;;28.13;23.03;;;;;;;-148.33;100.00;56587.81;5050226;28;20079;-58
2022/03/22 04:44:30;;;;;;;29.55;23.92;;;;;;;-148.33;100.00;56587.81;5069578;28;20484;-58
2022/03/22 04:46:57;;;;;;;32.63;25.30;;;;;;;-148.33;100.00;56587.81;5068612;28;20021;-58
2022/03/22 04:49:23;;;;;;;28.38;24.90;;;;;;;-148.33;100.00;56587.81;5069490;28;20029;-58
2022/03/22 04:57:16;;;;;;;26.63;23.80;;;;;;;-148.33;100.00;56587.81;5069253;28;20120;-58
2022/03/22 04:59:43;;;;;;;30.08;24.05;;;;;;;-148.33;100.00;56587.81;5069495;28;20552;-58
2022/03/22 05:02:09;;;;;;;30.93;24.10;;;;;;;-148.33;100.00;56587.81;5069460;28;20051;-59
2022/03/22 05:04:35;;;;;;;29.03;24.30;;;;;;;-148.33;100.00;56587.81;5068981;28;20016;-58
2022/03/22 05:07:00;;;;;;;28.67;24.07;;;;;;;-148.33;100.00;56587.81;5068780;28;20031;-58
2022/03/22 05:09:28;;;;;;;28.23;25.07;;;;;;;-148.33;100.00;56587.81;5068871;28;20552;-59
2022/03/22 05:11:54;;;;;;;27.93;24.07;;;;;;;-148.33;100.00;56587.81;5068942;28;20029;-58
2022/03/22 05:14:19;;;;;;;29.47;24.37;;;;;;;-148.33;100.00;56587.81;5068321;28;20032;-59
2022/03/22 05:16:45;;;;;;;28.90;25.50;;;;;;;-148.33;100.00;56587.81;5068685;28;20028;-59
2022/03/22 05:19:12;;;;;;;31.27;24.37;;;;;;;-148.33;100.00;56587.81;5068808;28;20107;-58
2022/03/22 05:21:38;;;;;;;31.97;23.87;;;;;;;-148.33;100.00;56587.81;5068753;28;20503;-58
2022/03/22 05:24:03;;;;;;;30.37;24.47;;;;;;;-148.33;100.00;56587.81;5066911;28;20122;-58
2022/03/22 05:26:29;;;;;;;29.10;24.17;;;;;;;-148.33;100.00;56587.81;5056474;28;20472;-56
2022/03/22 05:28:55;;;;;;;30.47;25.67;;;;;;;-148.33;100.00;56587.81;5048004;28;20068;-58
2022/03/22 05:31:23;;;;;;;28.00;22.87;;;;;;;-148.33;100.00;56587.81;5053767;28;20090;-57
2022/03/22 05:33:49;;;;;;;27.07;23.30;;;;;;;-148.33;100.00;56587.81;5067204;28;20059;-58
2022/03/22 05:36:15;;;;;;;27.30;22.23;;;;;;;-148.33;100.00;56587.81;5064167;28;20032;-57
2022/03/22 05:38:41;;;;;;;27.83;24.63;;;;;;;-148.33;100.00;56587.81;5061586;28;20552;-57
2022/03/22 05:41:08;;;;;;;29.87;24.30;;;;;;;-148.33;100.00;56587.81;5049487;28;20094;-59
2022/03/22 05:43:34;;;;;;;31.67;23.73;;;;;;;-148.33;100.00;56587.81;5049425;28;20037;-58
2022/03/22 05:46:01;;;;;;;27.90;23.20;;;;;;;-148.33;100.00;56587.81;5049553;28;20037;-58
2022/03/22 05:48:27;;;;;;;30.03;25.13;;;;;;;-148.33;100.00;56587.81;5049074;28;20337;-59
2022/03/22 05:50:53;;;;;;;29.17;23.83;;;;;;;-148.33;100.00;56587.81;5049085;28;20473;-58
2022/03/22 05:53:18;;;;;;;28.73;24.00;;;;;;;-148.33;100.00;56587.81;5048836;28;20033;-58
2022/03/22 05:55:43;;;;;;;29.73;24.80;;;;;;;-148.33;100.00;56587.81;5048732;28;20374;-58
2022/03/22 05:58:09;;;;;;;30.17;24.75;;;;;;;-148.33;100.00;56587.81;5048692;28;20115;-59
2022/03/22 06:00:35;;;;;;;29.15;24.88;;;;;;;-148.33;100.00;56587.81;5048968;28;20471;-58
2022/03/22 06:03:01;;;;;;;29.30;25.80;;;;;;;-148.33;100.00;56587.81;5048772;28;20021;-58
2022/03/22 06:05:28;;;;;;;32.10;25.23;;;;;;;-148.33;100.00;56587.81;5049121;28;20052;-58
2022/03/22 06:07:55;;;;;;;30.07;25.40;;;;;;;-148.33;100.00;56587.81;5053181;28;20024;-58
2022/03/22 06:10:21;;;;;;;31.20;24.43;;;;;;;-148.33;100.00;56587.81;5048533;28;20452;-58
2022/03/22 06:12:55;;;;;;;29.60;24.08;;;;;;;-148.33;100.00;56587.81;5048121;28;20048;-57
2022/03/22 06:15:24;;;;;;;30.60;23.95;;;;;;;-148.33;100.00;56587.81;5059035;28;20047;-58
2022/03/22 06:17:56;;;;;;;28.75;23.88;;;;;;;-148.33;100.00;56587.81;5067580;28;20033;-59
2022/03/22 06:20:25;;;;;;;28.75;23.52;;;;;;;-148.33;100.00;56587.81;5067507;28;20838;-56
2022/03/22 06:22:52;;;;;;;30.53;25.70;;;;;;;-148.33;100.00;56587.81;5067808;28;20547;-57
2022/03/22 06:25:18;;;;;;;32.23;25.23;;;;;;;-148.33;100.00;56587.81;5066800;28;20439;-59
2022/03/22 06:27:46;;;;;;;29.25;23.50;;;;;;;-148.33;100.00;56587.81;5067490;28;20028;-58
2022/03/22 06:30:13;;;;;;;29.02;23.63;;;;;;;-148.33;100.00;56587.81;5062900;28;20552;-56
2022/03/22 06:32:45;;;;;;;26.77;23.88;;;;;;;-148.33;100.00;56587.81;5065855;28;20024;-58
2022/03/22 06:35:11;;;;;;;27.80;24.10;;;;;;;-148.33;100.00;56587.81;5067611;28;20115;-58
2022/03/22 06:37:38;;;;;;;28.00;23.48;;;;;;;-148.33;100.00;56587.81;5055672;28;20087;-58
2022/03/22 06:40:05;;;;;;;30.45;25.13;;;;;;;-148.33;100.00;56587.81;5058602;28;20078;-56
2022/03/22 06:42:30;;;;;;;31.80;25.02;;;;;;;-148.33;100.00;56587.81;5065733;28;20021;-59
2022/03/22 06:44:56;;;;;;;29.23;24.88;;;;;;;-148.33;100.00;56587.81;5065262;28;20584;-57
2022/03/22 06:47:23;;;;;;;30.58;24.92;;;;;;;-148.33;100.00;56587.81;5066019;28;20111;-58
2022/03/22 06:49:48;;;;;;;32.13;24.40;;;;;;;-148.33;100.00;56587.81;5066858;28;20020;-57
2022/03/22 06:52:14;;;;;;;28.80;24.52;;;;;;;-148.33;100.00;56587.81;5066682;28;20262;-59
2022/03/22 06:54:39;;;;;;;28.20;24.38;;;;;;;-148.33;100.00;56587.81;5065203;28;20321;-57
2022/03/22 06:57:05;;;;;;;25.95;23.15;;;;;;;-148.33;100.00;56587.81;5065638;28;20051;-58
2022/03/22 06:59:31;;;;;;;27.25;24.35;;;;;;;-148.33;100.00;56587.81;5065778;28;20056;-59
2022/03/22 07:01:56;;;;;;;27.00;24.05;;;;;;;-148.33;100.00;56587.81;5066884;28;20023;-58
2022/03/22 07:04:21;;;;;;;28.10;24.40;;;;;;;-148.33;100.00;56587.81;5066470;28;20033;-59
2022/03/22 07:06:47;;;;;;;29.05;25.52;;;;;;;-148.33;100.00;56587.81;5067210;28;20028;-59
2022/03/22 07:09:12;;;;;;;32.70;27.33;;;;;;;-148.33;100.00;56587.81;5066988;28;20043;-58
2022/03/22 07:11:52;;;;;;;31.48;27.23;;;;;;;-148.33;100.00;56587.81;5066948;28;20529;-59
2022/03/22 07:14:25;;;;;;;30.08;24.92;;;;;;;-148.33;100.00;56587.81;5067291;28;20036;-59
2022/03/22 07:16:51;;;;;;;27.90;24.75;;;;;;;-148.33;100.00;56587.81;5066733;28;20028;-58
2022/03/22 07:19:18;;;;;;;25.75;23.00;;;;;;;-148.33;100.00;56587.81;5066696;28;20491;-57
2022/03/22 07:21:44;;;;;;;26.52;23.70;;;;;;;-148.33;100.00;56587.81;5066523;28;20028;-58
2022/03/22 07:24:11;;;;;;;27.30;24.17;;;;;;;-148.33;100.00;56587.81;5066725;28;20078;-58
2022/03/22 07:26:37;;;;;;;26.88;24.17;;;;;;;-148.33;100.00;56587.81;5067168;28;20492;-59
2022/03/22 07:29:03;;;;;;;26.88;23.17;;;;;;;-148.33;100.00;56587.81;5066702;28;20469;-59
2022/03/22 07:31:29;;;;;;;28.13;24.58;;;;;;;-148.33;100.00;56587.81;5066791;28;20016;-58
2022/03/22 07:33:54;;;;;;;26.02;22.85;;;;;;;-148.33;100.00;56587.81;5066845;28;20488;-59
2022/03/22 07:36:20;;;;;;;28.83;24.70;;;;;;;-148.33;100.00;56587.81;5068869;28;20123;-58
2022/03/22 07:38:46;;;;;;;28.65;23.45;;;;;;;-148.33;100.00;56587.81;5070537;28;20528;-59
2022/03/22 07:41:12;;;;;;;27.65;23.27;;;;;;;-148.33;100.00;56587.81;5070550;28;20024;-59
2022/03/22 07:43:38;;;;;;;30.83;24.27;;;;;;;-148.33;100.00;56587.81;5070630;28;20031;-58
2022/03/22 07:46:04;;;;;;;26.38;23.58;;;;;;;-148.33;100.00;56587.81;5070673;28;20445;-58
2022/03/22 07:48:29;;;;;;;25.77;22.73;;;;;;;-148.33;100.00;56587.81;5070599;28;20051;-59
2022/03/22 07:53:38;;;;;;;26.58;22.20;;;;;;;-148.33;100.00;56587.81;5053667;28;20036;-59
2022/03/22 07:56:03;;;;;;;26.98;22.75;;;;;;;-148.33;100.00;56587.81;5050935;28;20032;-58
2022/03/22 07:58:29;;;;;;;25.02;22.52;;;;;;;-148.33;100.00;56587.81;5051557;28;20068;-59
2022/03/22 08:00:55;;;;;;;25.83;21.58;;;;;;;-148.33;100.00;56587.81;5051182;28;20047;-59
2022/03/22 08:03:21;;;;;;;26.02;21.60;;;;;;;-148.33;100.00;56587.81;5051103;28;20025;-59
2022/03/22 08:05:47;;;;;;;24.50;21.80;;;;;;;-148.33;100.00;56587.81;5051335;28;20366;-59
2022/03/22 08:08:13;;;;;;;28.23;21.42;;;;;;;-148.33;100.00;56587.81;5051094;28;20538;-57
2022/03/22 08:10:38;;;;;;;27.13;22.30;;;;;;;-148.33;100.00;56587.81;5050965;28;20029;-59
2022/03/22 08:13:06;;;;;;;25.27;21.85;;;;;;;-148.33;100.00;56587.81;5070182;28;20086;-58
2022/03/22 08:15:31;;;;;;;27.17;22.92;;;;;;;-148.33;100.00;56587.81;5070387;28;20033;-58
2022/03/22 08:17:57;;;;;;;24.92;22.42;;;;;;;-148.33;100.00;56587.81;5069210;28;20035;-59
2022/03/22 08:20:27;;;;;;;24.13;21.52;;;;;;;-148.33;100.00;56587.81;5070171;28;20024;-59
2022/03/22 08:23:04;;;;;;;24.03;21.50;;;;;;;-148.33;100.00;56587.81;5070506;28;20723;-58
2022/03/22 08:25:29;;;;;;;27.23;22.63;;;;;;;-148.33;100.00;56587.81;5070022;28;20050;-60
2022/03/22 08:27:56;;;;;;;24.63;22.15;;;;;;;-148.33;100.00;56587.81;5069750;28;20518;-59
2022/03/22 08:30:22;;;;;;;28.20;23.20;;;;;;;-148.33;100.00;56587.81;5050765;28;20064;-59
2022/03/22 08:32:51;;;;;;;24.90;22.30;;;;;;;-148.33;100.00;56587.81;5049971;28;20068;-60
2022/03/22 08:35:17;;;;;;;24.25;21.65;;;;;;;-148.33;100.00;56587.81;5063296;28;20519;-60
2022/03/22 08:37:43;;;;;;;25.73;21.90;;;;;;;-148.33;100.00;56587.81;5050512;28;20029;-59
2022/03/22 08:40:09;;;;;;;25.88;23.15;;;;;;;-148.33;100.00;56587.81;5050521;28;20443;-58
2022/03/22 08:42:37;;;;;;;25.40;22.80;;;;;;;-148.33;100.00;56587.81;5050738;28;20470;-59
2022/03/22 08:45:06;;;;;;;25.70;23.00;;;;;;;-148.33;100.00;56587.81;5050109;28;20064;-59
2022/03/22 08:47:34;;;;;;;26.15;23.38;;;;;;;-148.33;100.00;56587.81;5049778;28;20036;-60
2022/03/22 08:49:59;;;;;;;27.40;23.02;;;;;;;-148.33;100.00;56587.81;5050878;28;20224;-59
2022/03/22 08:52:24;;;;;;;25.17;22.55;;;;;;;-148.33;100.00;56587.81;5050609;28;20033;-58
2022/03/22 08:54:51;;;;;;;25.20;22.60;;;;;;;-148.33;100.00;56587.81;5050317;28;20394;-60
2022/03/22 08:57:17;;;;;;;27.00;23.17;;;;;;;-148.33;100.00;56587.81;5032003;28;20028;-60
2022/03/22 08:59:43;;;;;;;25.60;22.77;;;;;;;-148.33;100.00;56587.81;5049704;28;20041;-59
2022/03/22 09:02:09;;;;;;;24.48;21.88;;;;;;;-148.33;100.00;56587.81;5049769;28;20025;-60
2022/03/22 09:07:18;;;;;;;25.73;22.33;;;;;;;-148.33;100.00;56587.81;5063012;28;20107;-59
2022/03/22 09:09:44;;;;;;;24.77;22.33;;;;;;;-148.33;100.00;56587.81;5069346;28;20032;-59
2022/03/22 09:12:11;;;;;;;24.30;21.77;;;;;;;-148.33;100.00;56587.81;5069011;28;20526;-60
2022/03/22 09:14:36;;;;;;;23.67;21.25;;;;;;;-148.33;100.00;56587.81;5069357;28;20315;-60
2022/03/22 09:17:02;;;;;;;27.10;21.30;;;;;;;-148.33;100.00;56587.81;5068866;28;20020;-60
2022/03/22 09:19:27;;;;;;;26.23;21.05;;;;;;;-148.33;100.00;56587.81;5068210;28;20471;-59
2022/03/22 09:21:53;;;;;;;24.55;21.95;;;;;;;-148.33;100.00;56587.81;5069494;28;20020;-60
2022/03/22 09:24:18;;;;;;;23.73;20.85;;;;;;;-148.33;100.00;56587.81;5069264;28;20070;-60
2022/03/22 09:26:43;;;;;;;24.10;21.58;;;;;;;-148.33;100.00;56587.81;5068923;28;20036;-60
2022/03/22 09:29:09;;;;;;;26.00;21.92;;;;;;;-148.33;100.00;56587.81;5068873;28;20115;-60
2022/03/22 09:31:34;;;;;;;26.50;21.67;;;;;;;-148.33;100.00;56587.81;5068815;28;20020;-60
2022/03/22 09:34:00;;;;;;;26.90;21.92;;;;;;;-148.33;100.00;56587.81;5068594;28;20557;-60
2022/03/22 09:36:25;;;;;;;24.58;21.10;;;;;;;-148.33;100.00;56587.81;5068983;28;20369;-60
2022/03/22 09:38:50;;;;;;;24.15;21.65;;;;;;;-148.33;100.00;56587.81;5068462;28;20045;-60
2022/03/22 09:41:16;;;;;;;25.65;21.25;;;;;;;-148.33;100.00;56587.81;5068541;28;20507;-60
2022/03/22 09:43:49;;;;;;;23.73;21.20;;;;;;;-148.33;100.00;56587.81;5068479;28;20028;-60
2022/03/22 09:46:22;;;;;;;24.38;21.23;;;;;;;-148.33;100.00;56587.81;5068919;28;20031;-60
2022/03/22 09:48:48;;;;;;;23.92;21.40;;;;;;;-148.33;100.00;56587.81;5068276;28;20032;-59
2022/03/22 09:54:00;;;;;;;24.10;21.48;;;;;;;-148.33;100.00;56587.81;5067918;28;20729;-58
2022/03/22 09:56:30;;;;;;;24.00;21.00;;;;;;;-148.33;100.00;56587.81;5068619;28;20100;-60
2022/03/22 09:58:57;;;;;;;24.13;21.60;;;;;;;-148.33;100.00;56587.81;5067757;28;20048;-58
2022/03/22 10:01:22;;;;;;;22.80;20.40;;;;;;;-148.33;100.00;56587.81;5068217;28;20032;-60
2022/03/22 10:04:15;;;;;;;23.85;21.35;;;;;;;-148.33;100.00;56587.81;5068231;28;20025;-60
2022/03/22 10:06:57;;;;;;;24.80;22.20;;;;;;;-148.33;100.00;56587.81;5063970;28;20492;-58
2022/03/22 10:09:41;;;;;;;24.80;21.13;;;;;;;-148.33;100.00;56587.81;5067867;28;20028;-60
2022/03/22 10:12:11;;;;;;;23.85;21.33;;;;;;;-148.33;100.00;56587.81;5067956;28;20025;-59
2022/03/22 10:14:39;;;;;;;28.20;21.70;;;;;;;-148.33;100.00;56587.81;5068333;28;20377;-60
2022/03/22 10:17:10;;;;;;;23.23;20.38;;;;;;;-148.33;100.00;56587.81;5067999;28;20024;-59
2022/03/22 10:19:51;;;;;;;26.55;21.73;;;;;;;-148.33;100.00;56587.81;5048595;28;20196;-60
2022/03/22 10:22:22;;;;;;;25.65;21.70;;;;;;;-148.33;100.00;56587.81;5048666;28;20052;-60
2022/03/22 10:24:54;;;;;;;24.27;21.08;;;;;;;-148.33;100.00;56587.81;5048485;28;20031;-59
2022/03/22 10:27:22;;;;;;;26.70;21.85;;;;;;;-148.33;100.00;56587.81;5048071;28;20520;-60
2022/03/22 10:29:47;;;;;;;24.73;22.17;;;;;;;-148.33;100.00;56587.81;5048981;28;20082;-60
2022/03/22 10:32:13;;;;;;;25.92;20.60;;;;;;;-148.33;100.00;56587.81;5048204;28;20016;-60
2022/03/22 10:34:38;;;;;;;26.35;20.65;;;;;;;-148.33;100.00;56587.81;5048568;28;20325;-58
2022/03/22 10:37:04;;;;;;;23.50;20.63;;;;;;;-148.33;100.00;56587.81;5047978;28;20105;-60
2022/03/22 10:39:29;;;;;;;25.42;21.67;;;;;;;-148.33;100.00;56587.81;5048054;28;20039;-60
2022/03/22 10:42:05;;;;;;;24.35;21.35;;;;;;;-148.33;100.00;56587.81;5047950;28;20028;-60
2022/03/22 10:44:34;;;;;;;27.42;21.38;;;;;;;-148.33;100.00;56587.81;5048443;28;20024;-60
2022/03/22 10:47:02;;;;;;;29.77;21.67;;;;;;;-148.33;100.00;56587.81;5047979;28;20032;-60
2022/03/22 10:49:28;;;;;;;24.58;21.88;;;;;;;-148.33;100.00;56587.81;5048189;28;20094;-60
2022/03/22 10:51:56;;;;;;;27.00;21.75;;;;;;;-148.33;100.00;56587.81;5048038;28;20025;-60
2022/03/22 10:54:22;;;;;;;25.73;21.55;;;;;;;-148.33;100.00;56587.81;5047504;28;20052;-60
2022/03/22 10:56:55;;;;;;;24.83;22.13;;;;;;;-148.33;100.00;56587.81;5048134;28;20100;-60
2022/03/22 10:59:23;;;;;;;26.42;22.45;;;;;;;-148.33;100.00;56587.81;5047862;28;20074;-60
2022/03/22 11:01:50;;;;;;;24.85;22.25;;;;;;;-148.33;100.00;56587.81;5048402;28;20054;-60
2022/03/22 11:04:16;;;;;;;26.25;23.20;;;;;;;-148.33;100.00;56587.81;5047111;28;20036;-60
2022/03/22 11:06:43;;;;;;;24.50;21.70;;;;;;;-148.33;100.00;56587.81;5047866;28;20031;-60
2022/03/22 11:09:09;;;;;;;26.23;22.33;;;;;;;-148.33;100.00;56587.81;5048038;28;20548;-60
2022/03/22 11:11:35;;;;;;;26.45;21.42;;;;;;;-148.33;100.00;56587.81;5049091;28;20033;-60
2022/03/22 11:14:02;;;;;;;26.83;22.05;;;;;;;-148.33;100.00;56587.81;5066794;28;20538;-60
2022/03/22 11:16:29;;;;;;;29.65;22.38;;;;;;;-148.33;100.00;56587.81;5067438;28;20021;-60
2022/03/22 11:18:59;;;;;;;28.60;23.08;;;;;;;-148.33;100.00;56587.81;5066811;28;20055;-59
2022/03/22 11:21:25;;;;;;;24.85;22.23;;;;;;;-148.33;100.00;56587.81;5066639;28;20016;-59